createdAt,value
2022-10-23T00:01:28.383Z,37.70
2022-10-23T00:04:16.667Z,37.70
2022-10-23T00:06:44.668Z,37.50
2022-10-23T00:09:16.017Z,39.30
2022-10-23T00:11:44.737Z,39.30
2022-10-23T00:14:11.816Z,39.10
2022-10-23T00:16:38.914Z,39.20
2022-10-23T00:19:06.932Z,39.30
2022-10-23T00:21:33.947Z,40.00
2022-10-23T00:24:00.970Z,40.50
2022-10-23T00:26:28.374Z,40.70
2022-10-23T00:28:55.803Z,40.80
2022-10-23T00:31:24.236Z,40.10
2022-10-23T00:33:52.589Z,40.90
2022-10-23T00:36:21.693Z,41.30
2022-10-23T00:38:50.090Z,41.50
2022-10-23T00:41:24.472Z,40.90
2022-10-23T00:44:17.320Z,40.20
2022-10-23T00:46:44.931Z,39.50
2022-10-23T00:51:44.370Z,40.50
2022-10-23T00:54:29.166Z,40.30
2022-10-23T00:56:59.258Z,40.40
2022-10-23T00:59:27.176Z,40.30
2022-10-23T01:01:54.445Z,40.30
2022-10-23T01:04:22.494Z,40.20
2022-10-23T01:06:55.429Z,40.20
2022-10-23T01:09:46.153Z,40.10
2022-10-23T01:12:39.758Z,39.70
2022-10-23T01:15:28.403Z,39.90
2022-10-23T01:18:06.533Z,40.50
2022-10-23T01:20:39.727Z,40.60
2022-10-23T01:23:06.703Z,41.20
2022-10-23T01:25:45.711Z,41.30
2022-10-23T01:28:19.775Z,40.50
2022-10-23T01:30:48.620Z,40.90
2022-10-23T01:33:23.277Z,41.20
2022-10-23T01:35:53.873Z,41.20
2022-10-23T01:38:34.435Z,41.30
2022-10-23T01:41:07.533Z,40.70
2022-10-23T01:44:07.236Z,40.90
2022-10-23T01:46:38.453Z,40.00
2022-10-23T01:49:09.381Z,41.20
2022-10-23T01:51:37.958Z,41.80
2022-10-23T01:54:08.993Z,42.10
2022-10-23T01:56:39.152Z,42.40
2022-10-23T01:59:10.712Z,42.40
2022-10-23T02:01:41.265Z,42.60
2022-10-23T02:04:12.167Z,42.70
2022-10-23T02:06:39.396Z,42.70
2022-10-23T02:09:07.286Z,42.70
2022-10-23T02:11:43.626Z,42.70
2022-10-23T02:14:27.913Z,42.40
2022-10-23T02:17:04.357Z,42.20
2022-10-23T02:20:13.488Z,42.60
2022-10-23T02:22:45.434Z,41.80
2022-10-23T02:25:18.596Z,42.70
2022-10-23T02:27:49.081Z,42.70
2022-10-23T02:30:18.178Z,42.70
2022-10-23T02:32:51.475Z,42.70
2022-10-23T02:35:20.964Z,42.70
2022-10-23T02:37:59.003Z,42.50
2022-10-23T02:40:44.879Z,42.00
2022-10-23T02:43:37.813Z,41.80
2022-10-23T02:46:22.115Z,42.60
2022-10-23T02:49:01.602Z,42.40
2022-10-23T02:51:34.996Z,42.10
2022-10-23T02:54:38.911Z,41.80
2022-10-23T02:57:30.001Z,40.80
2022-10-23T03:00:02.817Z,40.70
2022-10-23T03:02:53.705Z,41.40
2022-10-23T03:05:26.016Z,41.40
2022-10-23T03:07:53.072Z,41.20
2022-10-23T03:10:20.637Z,41.30
2022-10-23T03:12:48.855Z,41.10
2022-10-23T03:15:17.096Z,41.50
2022-10-23T03:17:44.178Z,41.50
2022-10-23T03:20:11.394Z,42.10
2022-10-23T03:22:39.203Z,42.00
2022-10-23T03:25:07.002Z,41.80
2022-10-23T03:27:34.211Z,41.70
2022-10-23T03:30:01.267Z,42.00
2022-10-23T03:32:28.268Z,42.20
2022-10-23T03:34:55.277Z,42.00
2022-10-23T03:37:22.290Z,42.40
2022-10-23T03:39:49.373Z,43.00
2022-10-23T03:42:16.471Z,42.70
2022-10-23T03:44:43.302Z,42.50
2022-10-23T03:47:12.004Z,42.40
2022-10-23T03:49:39.841Z,42.50
2022-10-23T03:52:07.643Z,42.60
2022-10-23T03:54:34.621Z,42.80
2022-10-23T03:57:02.016Z,42.90
2022-10-23T03:59:29.327Z,42.80
2022-10-23T04:01:56.476Z,42.70
2022-10-23T04:04:23.497Z,42.70
2022-10-23T04:06:50.446Z,42.70
2022-10-23T04:09:17.673Z,42.90
2022-10-23T04:11:44.658Z,43.30
2022-10-23T04:14:13.481Z,43.80
2022-10-23T04:16:40.558Z,44.30
2022-10-23T04:19:07.525Z,44.70
2022-10-23T04:21:34.611Z,44.60
2022-10-23T04:24:01.586Z,45.00
2022-10-23T04:26:28.549Z,45.20
2022-10-23T04:28:55.503Z,45.20
2022-10-23T04:31:22.471Z,44.80
2022-10-23T04:33:49.425Z,45.00
2022-10-23T04:36:16.588Z,45.80
2022-10-23T04:38:43.599Z,46.40
2022-10-23T04:41:10.632Z,45.80
2022-10-23T04:43:37.576Z,45.60
2022-10-23T04:46:04.649Z,45.50
2022-10-23T04:48:32.012Z,45.60
2022-10-23T04:51:01.751Z,45.50
2022-10-23T04:53:29.491Z,45.50
2022-10-23T04:55:57.965Z,45.50
2022-10-23T04:58:27.062Z,45.20
2022-10-23T05:00:54.844Z,45.20
2022-10-23T05:03:23.478Z,45.30
2022-10-23T05:05:54.519Z,45.50
2022-10-23T05:08:22.863Z,45.50
2022-10-23T05:10:50.452Z,45.70
2022-10-23T05:13:19.809Z,45.90
2022-10-23T05:15:51.721Z,46.00
2022-10-23T05:18:22.163Z,46.00
2022-10-23T05:20:52.082Z,47.10
2022-10-23T05:23:22.363Z,47.20
2022-10-23T05:25:49.340Z,47.00
2022-10-23T05:28:16.534Z,46.90
2022-10-23T05:30:43.913Z,45.80
2022-10-23T05:33:11.622Z,45.50
2022-10-23T05:35:39.583Z,45.10
2022-10-23T05:38:07.528Z,45.00
2022-10-23T05:40:34.618Z,44.90
2022-10-23T05:43:01.574Z,44.70
2022-10-23T05:45:29.068Z,44.70
2022-10-23T05:48:05.591Z,44.50
2022-10-23T05:50:38.460Z,44.40
2022-10-23T05:53:05.377Z,44.90
2022-10-23T05:55:33.105Z,44.80
2022-10-23T05:58:02.901Z,44.90
2022-10-23T06:00:30.170Z,44.70
2022-10-23T06:03:02.781Z,44.70
2022-10-23T06:05:29.971Z,44.60
2022-10-23T06:08:00.191Z,44.40
2022-10-23T06:10:28.109Z,44.10
2022-10-23T06:12:54.986Z,44.00
2022-10-23T06:15:21.847Z,43.80
2022-10-23T06:17:48.825Z,43.80
2022-10-23T06:20:15.753Z,43.90
2022-10-23T06:22:42.877Z,44.10
2022-10-23T06:25:10.130Z,44.40
2022-10-23T06:27:36.981Z,44.80
2022-10-23T06:30:04.536Z,45.00
2022-10-23T06:32:34.526Z,45.20
2022-10-23T06:35:01.588Z,46.10
2022-10-23T06:37:28.593Z,47.20
2022-10-23T06:39:55.863Z,47.20
2022-10-23T06:42:22.865Z,46.80
2022-10-23T06:44:50.374Z,47.20
2022-10-23T06:49:44.649Z,47.40
2022-10-23T06:52:23.185Z,47.30
2022-10-23T06:54:55.764Z,47.40
2022-10-23T06:57:22.920Z,47.50
2022-10-23T06:59:50.621Z,47.50
2022-10-23T07:02:18.611Z,47.60
2022-10-23T07:04:45.513Z,50.40
2022-10-23T07:07:12.608Z,53.10
2022-10-23T07:09:39.690Z,53.40
2022-10-23T07:12:06.875Z,53.70
2022-10-23T07:14:33.930Z,51.60
2022-10-23T07:17:01.281Z,49.10
2022-10-23T07:19:28.487Z,47.70
2022-10-23T07:21:55.515Z,45.90
2022-10-23T07:24:22.647Z,45.50
2022-10-23T07:29:17.605Z,41.30
2022-10-23T07:31:44.861Z,41.70
2022-10-23T07:34:12.186Z,39.70
2022-10-23T07:36:39.302Z,36.70
2022-10-23T07:39:06.576Z,32.30
2022-10-23T07:41:33.505Z,28.80
2022-10-23T07:44:00.495Z,25.60
2022-10-23T07:46:27.706Z,22.80
2022-10-23T07:48:54.638Z,19.70
2022-10-23T07:51:21.694Z,16.20
2022-10-23T07:53:48.726Z,13.10
2022-10-23T07:56:20.953Z,11.50
2022-10-23T07:58:47.832Z,10.60
2022-10-23T08:01:22.669Z,9.10
2022-10-23T08:03:49.724Z,7.40
2022-10-23T08:06:16.756Z,6.10
2022-10-23T08:11:14.149Z,4.00
2022-10-23T08:13:41.451Z,4.20
2022-10-23T08:16:08.543Z,2.30
2022-10-23T08:18:35.594Z,1.00
2022-10-23T08:21:04.323Z,1.00
2022-10-23T08:23:31.434Z,1.00
2022-10-23T08:26:00.424Z,1.00
2022-10-23T08:28:28.748Z,1.00
2022-10-23T08:30:59.257Z,1.80
2022-10-23T08:33:26.194Z,2.30
2022-10-23T08:35:53.197Z,2.90
2022-10-23T08:38:20.254Z,2.70
2022-10-23T08:40:49.239Z,2.50
2022-10-23T08:43:28.738Z,2.30
2022-10-23T08:46:06.165Z,2.20
2022-10-23T08:48:53.847Z,4.00
2022-10-23T08:51:40.371Z,5.10
2022-10-23T08:54:22.202Z,4.70
2022-10-23T08:56:53.720Z,5.10
2022-10-23T08:59:33.288Z,5.50
2022-10-23T09:02:13.853Z,6.00
2022-10-23T09:04:43.147Z,6.00
2022-10-23T09:07:20.025Z,5.80
2022-10-23T09:10:36.547Z,5.90
2022-10-23T09:13:12.134Z,5.70
2022-10-23T09:16:07.683Z,5.70
2022-10-23T09:18:34.715Z,5.40
2022-10-23T09:21:02.030Z,5.20
2022-10-23T09:23:29.024Z,4.50
2022-10-23T09:25:57.062Z,4.10
2022-10-23T09:28:32.077Z,3.90
2022-10-23T09:31:11.988Z,4.00
2022-10-23T09:33:39.828Z,3.40
2022-10-23T09:36:15.861Z,2.70
2022-10-23T09:38:48.766Z,2.20
2022-10-23T09:41:30.169Z,2.20
2022-10-23T09:44:25.324Z,2.20
2022-10-23T09:47:10.800Z,2.30
2022-10-23T09:49:46.745Z,2.20
2022-10-23T09:52:13.790Z,2.20
2022-10-23T09:55:36.821Z,2.20
2022-10-23T09:58:03.725Z,2.20
2022-10-23T10:00:33.862Z,2.20
2022-10-23T10:03:03.910Z,2.30
2022-10-23T10:05:36.882Z,2.30
2022-10-23T10:08:33.843Z,2.40
2022-10-23T10:11:20.766Z,2.40
2022-10-23T10:14:26.587Z,2.40
2022-10-23T10:16:56.422Z,2.40
2022-10-23T10:19:42.239Z,2.40
2022-10-23T10:22:30.367Z,2.40
2022-10-23T10:25:21.477Z,2.40
2022-10-23T10:28:10.184Z,2.40
2022-10-23T10:31:19.690Z,2.50
2022-10-23T10:34:00.496Z,2.50
2022-10-23T10:37:01.448Z,2.50
2022-10-23T10:39:52.940Z,2.50
2022-10-23T10:42:55.594Z,2.70
2022-10-23T10:45:37.607Z,2.70
2022-10-23T10:48:23.669Z,2.70
2022-10-23T10:51:08.238Z,2.80
2022-10-23T10:54:19.570Z,2.80
2022-10-23T10:56:47.855Z,2.80
2022-10-23T10:59:28.922Z,2.90
2022-10-23T11:01:56.005Z,1.90
2022-10-23T11:04:29.052Z,1.80
2022-10-23T11:06:57.461Z,1.30
2022-10-23T11:09:27.631Z,1.00
2022-10-23T11:11:55.481Z,1.00
2022-10-23T11:14:28.163Z,1.00
2022-10-23T11:17:20.352Z,1.00
2022-10-23T11:20:03.308Z,1.00
2022-10-23T11:23:22.130Z,1.00
2022-10-23T11:25:57.618Z,1.00
2022-10-23T11:28:27.519Z,1.00
2022-10-23T11:31:13.420Z,1.00
2022-10-23T11:33:54.670Z,1.00
2022-10-23T11:36:41.039Z,1.00
2022-10-23T11:39:30.878Z,1.00
2022-10-23T11:42:11.774Z,1.00
2022-10-23T11:44:40.812Z,1.00
2022-10-23T11:47:31.324Z,1.00
2022-10-23T11:50:07.180Z,1.00
2022-10-23T11:52:45.439Z,1.00
2022-10-23T11:55:36.274Z,1.00
2022-10-23T11:58:19.543Z,1.00
2022-10-23T12:01:04.251Z,1.00
2022-10-23T12:03:47.581Z,1.00
2022-10-23T12:06:26.060Z,1.00
2022-10-23T12:08:58.499Z,1.00
2022-10-23T12:11:43.045Z,1.00
2022-10-23T12:14:50.869Z,1.00
2022-10-23T12:17:24.007Z,1.00
2022-10-23T12:19:53.514Z,1.00
2022-10-23T12:22:24.794Z,1.00
2022-10-23T12:24:57.900Z,1.00
2022-10-23T12:27:48.883Z,1.00
2022-10-23T12:30:44.059Z,1.00
2022-10-23T12:33:35.127Z,1.00
2022-10-23T12:36:30.346Z,1.00
2022-10-23T12:38:58.731Z,1.00
2022-10-23T12:41:28.709Z,1.00
2022-10-23T12:44:02.079Z,1.00
2022-10-23T12:46:40.177Z,1.00
2022-10-23T12:49:22.284Z,1.00
2022-10-23T12:51:58.197Z,1.00
2022-10-23T12:54:26.129Z,1.00
2022-10-23T12:56:54.323Z,1.00
2022-10-23T12:59:28.341Z,1.00
2022-10-23T13:01:55.701Z,1.00
2022-10-23T13:04:27.928Z,1.00
2022-10-23T13:07:01.236Z,1.00
2022-10-23T13:09:33.521Z,1.00
2022-10-23T13:12:04.527Z,1.00
2022-10-23T13:14:39.464Z,1.00
2022-10-23T13:17:11.328Z,1.00
2022-10-23T13:19:38.409Z,1.00
2022-10-23T13:22:18.124Z,1.00
2022-10-23T13:24:45.224Z,1.00
2022-10-23T13:27:35.555Z,1.00
2022-10-23T13:30:04.056Z,1.00
2022-10-23T13:32:32.935Z,1.00
2022-10-23T13:35:20.969Z,1.00
2022-10-23T13:37:49.134Z,1.00
2022-10-23T13:40:27.931Z,1.00
2022-10-23T13:42:56.223Z,1.00
2022-10-23T13:45:26.458Z,1.00
2022-10-23T13:47:53.932Z,1.00
2022-10-23T13:50:21.009Z,1.00
2022-10-23T13:52:47.928Z,1.00
2022-10-23T13:55:23.044Z,1.00
2022-10-23T13:57:50.239Z,1.00
2022-10-23T14:00:18.526Z,1.00
2022-10-23T14:02:45.492Z,1.00
2022-10-23T14:05:13.023Z,1.00
2022-10-23T14:07:40.622Z,1.00
2022-10-23T14:10:08.035Z,1.00
2022-10-23T14:12:42.636Z,1.00
2022-10-23T14:15:11.533Z,1.00
2022-10-23T14:17:38.671Z,1.00
2022-10-23T14:20:06.831Z,1.00
2022-10-23T14:22:33.781Z,1.00
2022-10-23T14:25:00.782Z,1.00
2022-10-23T14:27:28.049Z,1.00
2022-10-23T14:29:55.074Z,1.00
2022-10-23T14:32:22.418Z,1.00
2022-10-23T14:34:54.122Z,1.00
2022-10-23T14:37:21.961Z,1.00
2022-10-23T14:39:50.195Z,1.00
2022-10-23T14:42:17.923Z,1.00
2022-10-23T14:44:45.306Z,1.00
2022-10-23T14:47:12.341Z,1.00
2022-10-23T14:49:40.416Z,1.00
2022-10-23T14:52:08.082Z,1.00
2022-10-23T14:54:36.498Z,1.00
2022-10-23T14:57:04.303Z,1.00
2022-10-23T14:59:31.331Z,1.00
2022-10-23T15:01:58.406Z,1.00
2022-10-23T15:04:25.603Z,1.00
2022-10-23T15:06:53.071Z,1.00
2022-10-23T15:09:20.385Z,1.00
2022-10-23T15:11:48.218Z,1.00
2022-10-23T15:14:15.322Z,1.00
2022-10-23T15:16:42.481Z,1.00
2022-10-23T15:19:17.164Z,1.00
2022-10-23T15:21:47.394Z,1.00
2022-10-23T15:24:15.688Z,1.00
2022-10-23T15:26:45.331Z,1.00
2022-10-23T15:29:13.188Z,1.00
2022-10-23T15:31:54.501Z,1.00
2022-10-23T15:34:24.051Z,1.00
2022-10-23T15:36:51.309Z,1.00
2022-10-23T15:39:21.474Z,1.00
2022-10-23T15:41:54.994Z,1.00
2022-10-23T15:44:24.391Z,1.00
2022-10-23T15:46:51.969Z,1.00
2022-10-23T15:49:19.936Z,1.00
2022-10-23T15:51:47.102Z,1.00
2022-10-23T15:54:16.675Z,1.00
2022-10-23T15:56:48.043Z,1.00
2022-10-23T15:59:15.929Z,1.00
2022-10-23T16:01:43.009Z,1.00
2022-10-23T16:04:10.416Z,1.00
2022-10-23T16:06:37.900Z,1.00
2022-10-23T16:09:05.086Z,1.00
2022-10-23T16:11:35.333Z,1.00
2022-10-23T16:14:03.695Z,1.00
2022-10-23T16:16:32.345Z,1.00
2022-10-23T16:19:00.786Z,1.00
2022-10-23T16:21:32.598Z,1.00
2022-10-23T16:24:01.169Z,1.00
2022-10-23T16:26:29.221Z,1.00
2022-10-23T16:28:58.318Z,1.00
2022-10-23T16:31:27.385Z,1.00
2022-10-23T16:33:54.670Z,1.00
2022-10-23T16:36:25.346Z,1.00
2022-10-23T16:38:52.491Z,1.00
2022-10-23T16:41:19.585Z,1.00
2022-10-23T16:43:46.621Z,1.00
2022-10-23T16:46:19.287Z,1.00
2022-10-23T16:48:46.783Z,1.00
2022-10-23T16:51:17.451Z,1.00
2022-10-23T16:53:45.904Z,1.00
2022-10-23T16:56:15.492Z,1.00
2022-10-23T16:58:43.232Z,1.00
2022-10-23T17:01:16.951Z,1.00
2022-10-23T17:03:48.188Z,1.00
2022-10-23T17:06:18.188Z,1.00
2022-10-23T17:08:45.756Z,1.00
2022-10-23T17:11:30.357Z,1.00
2022-10-23T17:14:12.143Z,1.00
2022-10-23T17:16:44.565Z,1.00
2022-10-23T17:19:21.009Z,1.00
2022-10-23T17:22:00.901Z,1.00
2022-10-23T17:24:28.067Z,1.00
2022-10-23T17:26:54.846Z,1.00
2022-10-23T17:29:21.880Z,1.00
2022-10-23T17:31:50.577Z,1.00
2022-10-23T17:34:20.796Z,1.00
2022-10-23T17:36:51.009Z,1.00
2022-10-23T17:39:21.839Z,1.00
2022-10-23T17:41:49.167Z,1.00
2022-10-23T17:44:16.362Z,1.00
2022-10-23T17:46:43.462Z,1.00
2022-10-23T17:49:11.167Z,1.00
2022-10-23T17:51:38.730Z,1.00
2022-10-23T17:54:08.990Z,1.00
2022-10-23T17:56:37.695Z,1.00
2022-10-23T17:59:07.795Z,1.00
2022-10-23T18:01:35.611Z,1.00
2022-10-23T18:04:05.483Z,1.00
2022-10-23T18:06:35.705Z,2.10
2022-10-23T18:09:04.930Z,2.20
2022-10-23T18:11:35.111Z,2.10
2022-10-23T18:14:03.010Z,2.10
2022-10-23T18:16:30.568Z,2.10
2022-10-23T18:18:59.971Z,2.00
2022-10-23T18:21:32.994Z,1.90
2022-10-23T18:24:00.564Z,3.10
2022-10-23T18:26:30.648Z,3.10
2022-10-23T18:28:58.934Z,3.70
2022-10-23T18:31:29.702Z,3.90
2022-10-23T18:34:03.046Z,4.10
2022-10-23T18:36:34.027Z,4.20
2022-10-23T18:39:01.417Z,4.60
2022-10-23T18:41:33.635Z,4.80
2022-10-23T18:44:00.577Z,5.10
2022-10-23T18:46:27.802Z,5.40
2022-10-23T18:48:55.090Z,5.70
2022-10-23T18:51:27.797Z,6.00
2022-10-23T18:53:55.593Z,6.50
2022-10-23T18:56:24.515Z,6.90
2022-10-23T18:58:54.195Z,7.30
2022-10-23T19:01:21.969Z,7.60
2022-10-23T19:03:49.572Z,7.50
2022-10-23T19:06:17.085Z,7.80
2022-10-23T19:08:45.793Z,8.40
2022-10-23T19:11:14.141Z,8.70
2022-10-23T19:13:41.852Z,9.00
2022-10-23T19:16:10.530Z,9.10
2022-10-23T19:18:40.610Z,9.30
2022-10-23T19:21:07.886Z,9.40
2022-10-23T19:23:37.275Z,9.30
2022-10-23T19:26:08.878Z,9.50
2022-10-23T19:28:39.819Z,9.50
2022-10-23T19:31:09.872Z,9.60
2022-10-23T19:33:39.032Z,9.80
2022-10-23T19:36:11.105Z,9.90
2022-10-23T19:38:41.547Z,10.00
2022-10-23T19:41:09.189Z,11.30
2022-10-23T19:43:37.787Z,9.90
2022-10-23T19:46:09.314Z,9.90
2022-10-23T19:48:42.551Z,9.70
2022-10-23T19:51:09.592Z,9.50
2022-10-23T19:53:36.747Z,9.10
2022-10-23T19:56:05.762Z,9.00
2022-10-23T19:58:33.307Z,8.80
2022-10-23T20:01:11.646Z,8.80
2022-10-23T20:03:40.571Z,8.50
2022-10-23T20:06:12.894Z,8.20
2022-10-23T20:08:40.815Z,7.80
2022-10-23T20:11:08.669Z,7.60
2022-10-23T20:13:36.138Z,7.40
2022-10-23T20:16:03.436Z,7.20
2022-10-23T20:18:31.512Z,6.90
2022-10-23T20:21:02.363Z,6.70
2022-10-23T20:23:29.310Z,6.60
2022-10-23T20:26:04.340Z,6.60
2022-10-23T20:28:31.335Z,6.40
2022-10-23T20:30:58.331Z,6.40
2022-10-23T20:33:25.614Z,6.30
2022-10-23T20:35:52.841Z,6.30
2022-10-23T20:38:19.963Z,6.30
2022-10-23T20:40:46.923Z,6.00
2022-10-23T20:43:13.827Z,5.80
2022-10-23T20:45:40.781Z,5.50
2022-10-23T20:48:07.732Z,5.50
2022-10-23T20:50:35.129Z,5.40
2022-10-23T20:53:02.163Z,5.30
2022-10-23T20:55:29.072Z,5.20
2022-10-23T20:58:14.864Z,5.10
2022-10-23T21:00:41.972Z,5.00
2022-10-23T21:03:08.938Z,5.10
2022-10-23T21:05:35.788Z,5.10
2022-10-23T21:08:02.676Z,5.10
2022-10-23T21:10:29.536Z,5.20
2022-10-23T21:12:56.414Z,5.30
2022-10-23T21:15:23.313Z,5.50
2022-10-23T21:17:52.177Z,5.50
2022-10-23T21:20:19.183Z,5.50
2022-10-23T21:22:46.536Z,5.60
2022-10-23T21:25:13.634Z,5.50
2022-10-23T21:27:40.843Z,5.50
2022-10-23T21:30:08.802Z,5.50
2022-10-23T21:32:35.735Z,5.40
2022-10-23T21:35:02.801Z,5.40
2022-10-23T21:37:29.750Z,5.50
2022-10-23T21:39:56.670Z,5.50
2022-10-23T21:42:23.706Z,5.60
2022-10-23T21:44:50.763Z,5.70
2022-10-23T21:47:17.648Z,5.90
2022-10-23T21:49:44.823Z,6.10
2022-10-23T21:52:13.990Z,6.40
2022-10-23T21:54:43.177Z,6.60
2022-10-23T21:57:14.874Z,6.80
2022-10-23T21:59:41.855Z,6.90
2022-10-23T22:02:09.515Z,7.20
2022-10-23T22:04:37.906Z,7.30
2022-10-23T22:07:05.593Z,7.40
2022-10-23T22:09:34.343Z,7.40
2022-10-23T22:12:01.422Z,7.50
2022-10-23T22:14:28.921Z,7.90
2022-10-23T22:16:55.822Z,8.00
2022-10-23T22:19:23.190Z,8.10
2022-10-23T22:21:51.684Z,8.10
2022-10-23T22:24:18.792Z,8.10
2022-10-23T22:26:50.027Z,8.20
2022-10-23T22:29:20.879Z,8.10
2022-10-23T22:31:49.841Z,8.10
2022-10-23T22:37:11.650Z,8.00
2022-10-23T22:39:39.596Z,8.10
2022-10-23T22:42:06.623Z,8.20
2022-10-23T22:44:33.493Z,8.30
2022-10-23T22:47:00.505Z,8.40
2022-10-23T22:49:27.340Z,8.40
2022-10-23T22:51:54.227Z,8.50
2022-10-23T22:54:21.137Z,8.50
2022-10-23T22:56:48.061Z,8.70
2022-10-23T22:59:14.979Z,9.00
2022-10-23T23:01:45.763Z,9.10
2022-10-23T23:04:36.557Z,9.20
2022-10-23T23:07:00.162Z,9.40
2022-10-23T23:09:27.080Z,9.50
2022-10-23T23:11:53.981Z,8.70
2022-10-23T23:14:23.795Z,9.80
2022-10-23T23:16:53.241Z,9.80
2022-10-23T23:19:22.883Z,9.90
2022-10-23T23:21:50.123Z,9.70
2022-10-23T23:24:17.124Z,9.70
2022-10-23T23:26:44.073Z,9.50
2022-10-23T23:29:11.344Z,9.40
2022-10-23T23:31:38.532Z,9.30
2022-10-23T23:34:05.480Z,9.20
2022-10-23T23:36:33.918Z,9.20
2022-10-23T23:39:01.457Z,9.20
2022-10-23T23:41:29.190Z,9.10
2022-10-23T23:43:58.158Z,9.00
2022-10-23T23:46:25.949Z,8.70
2022-10-23T23:48:52.963Z,8.50
2022-10-23T23:51:22.784Z,8.30
2022-10-23T23:53:50.225Z,8.30
2022-10-23T23:56:17.742Z,8.50
2022-10-23T23:58:44.837Z,8.70
